sensor_id;sensor_type;location;lat;lon;timestamp;pressure;altitude;pressure_sealevel;temperature;humidity
64711;BME280;51139;45.626;6.850;2023-02-01T00:00:03;82336.84;;;-1.96;47.65
64711;BME280;51139;45.626;6.850;2023-02-01T00:02:29;82336.34;;;-2.06;48.38
64711;BME280;51139;45.626;6.850;2023-02-01T00:04:54;82343.94;;;-1.80;48.22
64711;BME280;51139;45.626;6.850;2023-02-01T00:07:19;82334.28;;;-1.68;45.42
64711;BME280;51139;45.626;6.850;2023-02-01T00:09:45;82334.25;;;-1.62;45.63
64711;BME280;51139;45.626;6.850;2023-02-01T00:12:10;82340.63;;;-2.09;47.96
64711;BME280;51139;45.626;6.850;2023-02-01T00:14:36;82333.53;;;-2.02;48.28
64711;BME280;51139;45.626;6.850;2023-02-01T00:17:05;82334.97;;;-1.90;48.36
64711;BME280;51139;45.626;6.850;2023-02-01T00:19:32;82333.31;;;-1.82;48.80
64711;BME280;51139;45.626;6.850;2023-02-01T00:21:57;82336.38;;;-1.78;47.67
64711;BME280;51139;45.626;6.850;2023-02-01T00:24:22;82338.75;;;-1.80;47.67
64711;BME280;51139;45.626;6.850;2023-02-01T00:26:48;82340.63;;;-1.74;47.02
64711;BME280;51139;45.626;6.850;2023-02-01T00:29:17;82338.75;;;-1.68;48.30
64711;BME280;51139;45.626;6.850;2023-02-01T00:31:43;82337.81;;;-1.88;47.88
64711;BME280;51139;45.626;6.850;2023-02-01T00:34:11;82346.31;;;-1.59;47.50
64711;BME280;51139;45.626;6.850;2023-02-01T00:36:37;82333.34;;;-1.65;47.14
64711;BME280;51139;45.626;6.850;2023-02-01T00:39:03;82333.31;;;-1.25;44.08
64711;BME280;51139;45.626;6.850;2023-02-01T00:41:28;82332.59;;;-1.42;40.79
64711;BME280;51139;45.626;6.850;2023-02-01T00:43:54;82329.50;;;-1.12;43.42
64711;BME280;51139;45.626;6.850;2023-02-01T00:46:20;82324.72;;;-0.80;44.24
64711;BME280;51139;45.626;6.850;2023-02-01T00:48:46;82328.97;;;-0.82;40.80
64711;BME280;51139;45.626;6.850;2023-02-01T00:51:15;82323.78;;;-0.94;40.59
64711;BME280;51139;45.626;6.850;2023-02-01T00:53:41;82330.72;;;-1.25;41.62
64711;BME280;51139;45.626;6.850;2023-02-01T00:56:07;82346.50;;;-1.17;41.35
64711;BME280;51139;45.626;6.850;2023-02-01T00:58:33;82323.13;;;-1.34;40.07
64711;BME280;51139;45.626;6.850;2023-02-01T01:01:17;82339.69;;;-1.43;40.68
64711;BME280;51139;45.626;6.850;2023-02-01T01:03:46;82337.31;;;-1.24;41.76
64711;BME280;51139;45.626;6.850;2023-02-01T01:06:15;82336.59;;;-1.13;43.28
64711;BME280;51139;45.626;6.850;2023-02-01T01:08:41;82339.91;;;-1.12;45.49
64711;BME280;51139;45.626;6.850;2023-02-01T01:11:13;82343.47;;;-1.44;44.76
64711;BME280;51139;45.626;6.850;2023-02-01T01:13:39;82346.53;;;-1.40;45.94
64711;BME280;51139;45.626;6.850;2023-02-01T01:16:06;82343.47;;;-1.38;44.86
64711;BME280;51139;45.626;6.850;2023-02-01T01:18:32;82341.09;;;-1.48;44.48
64711;BME280;51139;45.626;6.850;2023-02-01T01:20:59;82345.84;;;-1.46;46.44
64711;BME280;51139;45.626;6.850;2023-02-01T01:23:25;82347.72;;;-1.81;47.97
64711;BME280;51139;45.626;6.850;2023-02-01T01:25:51;82343.69;;;-2.04;47.97
64711;BME280;51139;45.626;6.850;2023-02-01T01:28:16;82344.34;;;-2.21;48.65
64711;BME280;51139;45.626;6.850;2023-02-01T01:30:42;82346.50;;;-2.14;48.10
64711;BME280;51139;45.626;6.850;2023-02-01T01:33:07;82346.22;;;-2.27;49.10
64711;BME280;51139;45.626;6.850;2023-02-01T01:35:33;82352.63;;;-2.11;48.16
64711;BME280;51139;45.626;6.850;2023-02-01T01:38:00;82352.88;;;-2.15;46.89
64711;BME280;51139;45.626;6.850;2023-02-01T01:40:27;82355.44;;;-2.26;46.92
64711;BME280;51139;45.626;6.850;2023-02-01T01:42:52;82357.16;;;-1.89;46.76
64711;BME280;51139;45.626;6.850;2023-02-01T01:45:31;82356.38;;;-2.29;46.15
64711;BME280;51139;45.626;6.850;2023-02-01T01:48:16;82352.31;;;-2.47;47.21
64711;BME280;51139;45.626;6.850;2023-02-01T01:50:47;82349.38;;;-1.89;46.13
64711;BME280;51139;45.626;6.850;2023-02-01T01:53:20;82355.75;;;-1.67;43.19
64711;BME280;51139;45.626;6.850;2023-02-01T01:55:47;82345.34;;;-1.84;45.51
64711;BME280;51139;45.626;6.850;2023-02-01T01:58:17;82350.94;;;-2.37;46.76
64711;BME280;51139;45.626;6.850;2023-02-01T02:00:44;82338.91;;;-2.40;47.34
64711;BME280;51139;45.626;6.850;2023-02-01T02:03:32;82351.00;;;-2.09;45.30
64711;BME280;51139;45.626;6.850;2023-02-01T02:06:01;82343.88;;;-2.20;46.40
64711;BME280;51139;45.626;6.850;2023-02-01T02:08:28;82340.28;;;-2.45;46.46
64711;BME280;51139;45.626;6.850;2023-02-01T02:10:54;82338.47;;;-2.10;45.77
64711;BME280;51139;45.626;6.850;2023-02-01T02:22:03;82338.81;;;-2.69;46.82
64711;BME280;51139;45.626;6.850;2023-02-01T02:26:50;82339.13;;;-2.32;47.35
64711;BME280;51139;45.626;6.850;2023-02-01T02:32:22;82328.00;;;-3.16;49.14
64711;BME280;51139;45.626;6.850;2023-02-01T02:34:56;82346.16;;;-2.56;47.31
64711;BME280;51139;45.626;6.850;2023-02-01T02:37:46;82334.44;;;-3.00;48.34
64711;BME280;51139;45.626;6.850;2023-02-01T02:46:24;82334.97;;;-3.34;47.60
64711;BME280;51139;45.626;6.850;2023-02-01T02:49:36;82332.22;;;-3.19;48.43
64711;BME280;51139;45.626;6.850;2023-02-01T02:52:18;82333.69;;;-3.56;48.78
64711;BME280;51139;45.626;6.850;2023-02-01T02:55:05;82339.91;;;-3.36;48.88
64711;BME280;51139;45.626;6.850;2023-02-01T02:57:37;82326.31;;;-3.25;48.58
64711;BME280;51139;45.626;6.850;2023-02-01T03:00:27;82331.34;;;-3.54;48.38
64711;BME280;51139;45.626;6.850;2023-02-01T03:03:13;82329.72;;;-3.51;48.30
64711;BME280;51139;45.626;6.850;2023-02-01T03:05:57;82327.00;;;-3.30;47.91
64711;BME280;51139;45.626;6.850;2023-02-01T03:08:24;82337.78;;;-3.38;48.76
64711;BME280;51139;45.626;6.850;2023-02-01T03:11:06;82329.72;;;-3.45;48.47
64711;BME280;51139;45.626;6.850;2023-02-01T03:13:49;82331.16;;;-3.44;48.72
64711;BME280;51139;45.626;6.850;2023-02-01T03:16:26;82323.59;;;-3.48;48.82
64711;BME280;51139;45.626;6.850;2023-02-01T03:18:59;82329.84;;;-3.28;49.11
64711;BME280;51139;45.626;6.850;2023-02-01T03:21:48;82330.28;;;-3.68;49.27
64711;BME280;51139;45.626;6.850;2023-02-01T03:24:19;82329.88;;;-3.60;49.28
64711;BME280;51139;45.626;6.850;2023-02-01T03:26:54;82332.81;;;-3.79;49.84
64711;BME280;51139;45.626;6.850;2023-02-01T03:29:25;82326.97;;;-3.74;49.77
64711;BME280;51139;45.626;6.850;2023-02-01T03:31:52;82322.25;;;-3.75;49.75
64711;BME280;51139;45.626;6.850;2023-02-01T03:34:18;82328.56;;;-3.82;50.21
64711;BME280;51139;45.626;6.850;2023-02-01T03:36:49;82324.66;;;-3.98;50.98
64711;BME280;51139;45.626;6.850;2023-02-01T03:39:36;82334.13;;;-3.95;51.04
64711;BME280;51139;45.626;6.850;2023-02-01T03:42:05;82331.88;;;-3.76;50.56
64711;BME280;51139;45.626;6.850;2023-02-01T03:44:41;82337.06;;;-3.76;50.84
64711;BME280;51139;45.626;6.850;2023-02-01T03:47:21;82323.34;;;-3.88;50.60
64711;BME280;51139;45.626;6.850;2023-02-01T03:49:55;82326.59;;;-3.93;51.60
64711;BME280;51139;45.626;6.850;2023-02-01T03:52:28;82324.22;;;-3.97;52.25
64711;BME280;51139;45.626;6.850;2023-02-01T03:54:54;82323.53;;;-3.97;51.74
64711;BME280;51139;45.626;6.850;2023-02-01T03:57:27;82331.69;;;-3.72;51.45
64711;BME280;51139;45.626;6.850;2023-02-01T04:00:04;82329.09;;;-3.72;51.11
64711;BME280;51139;45.626;6.850;2023-02-01T04:02:30;82326.28;;;-3.69;50.37
64711;BME280;51139;45.626;6.850;2023-02-01T04:04:55;82329.72;;;-3.45;50.04
64711;BME280;51139;45.626;6.850;2023-02-01T04:07:21;82326.94;;;-3.42;49.72
64711;BME280;51139;45.626;6.850;2023-02-01T04:09:46;82328.78;;;-3.86;50.92
64711;BME280;51139;45.626;6.850;2023-02-01T04:12:12;82324.22;;;-3.97;50.96
64711;BME280;51139;45.626;6.850;2023-02-01T04:14:37;82330.44;;;-4.15;51.13
64711;BME280;51139;45.626;6.850;2023-02-01T04:17:02;82330.25;;;-4.05;51.34
64711;BME280;51139;45.626;6.850;2023-02-01T04:19:28;82338.78;;;-3.99;50.95
64711;BME280;51139;45.626;6.850;2023-02-01T04:21:53;82334.91;;;-4.15;51.45
64711;BME280;51139;45.626;6.850;2023-02-01T04:24:18;82332.22;;;-4.27;51.45
64711;BME280;51139;45.626;6.850;2023-02-01T04:26:44;82334.91;;;-4.15;51.37
64711;BME280;51139;45.626;6.850;2023-02-01T04:29:09;82334.81;;;-4.27;51.44
64711;BME280;51139;45.626;6.850;2023-02-01T04:31:35;82343.50;;;-3.98;51.68
64711;BME280;51139;45.626;6.850;2023-02-01T04:34:02;82338.56;;;-3.63;50.29
64711;BME280;51139;45.626;6.850;2023-02-01T04:36:27;82344.47;;;-3.57;51.12
64711;BME280;51139;45.626;6.850;2023-02-01T04:38:53;82344.59;;;-3.78;50.11
64711;BME280;51139;45.626;6.850;2023-02-01T04:41:19;82338.53;;;-3.69;50.62
64711;BME280;51139;45.626;6.850;2023-02-01T04:43:46;82349.09;;;-3.73;50.71
64711;BME280;51139;45.626;6.850;2023-02-01T04:46:11;82339.56;;;-3.93;50.88
64711;BME280;51139;45.626;6.850;2023-02-01T04:48:37;82344.72;;;-3.61;51.15
64711;BME280;51139;45.626;6.850;2023-02-01T04:51:02;82341.00;;;-3.86;50.99
64711;BME280;51139;45.626;6.850;2023-02-01T04:53:28;82337.88;;;-3.96;51.36
64711;BME280;51139;45.626;6.850;2023-02-01T04:55:54;82335.69;;;-3.71;50.75
64711;BME280;51139;45.626;6.850;2023-02-01T04:58:20;82336.91;;;-3.99;51.10
64711;BME280;51139;45.626;6.850;2023-02-01T05:00:45;82343.41;;;-4.09;51.97
64711;BME280;51139;45.626;6.850;2023-02-01T05:03:11;82337.19;;;-4.23;51.36
64711;BME280;51139;45.626;6.850;2023-02-01T05:05:36;82333.22;;;-3.92;51.47
64711;BME280;51139;45.626;6.850;2023-02-01T05:08:02;82331.97;;;-3.97;51.69
64711;BME280;51139;45.626;6.850;2023-02-01T05:10:27;82334.13;;;-3.95;51.29
64711;BME280;51139;45.626;6.850;2023-02-01T05:12:53;82337.88;;;-3.96;50.93
64711;BME280;51139;45.626;6.850;2023-02-01T05:15:36;82341.00;;;-3.86;51.34
64711;BME280;51139;45.626;6.850;2023-02-01T05:18:02;82330.75;;;-4.01;51.01
64711;BME280;51139;45.626;6.850;2023-02-01T05:20:28;82345.97;;;-3.83;51.42
64711;BME280;51139;45.626;6.850;2023-02-01T05:22:53;82346.16;;;-4.18;51.50
64711;BME280;51139;45.626;6.850;2023-02-01T05:25:18;82345.09;;;-4.06;51.61
64711;BME280;51139;45.626;6.850;2023-02-01T05:27:44;82350.00;;;-4.08;51.63
64711;BME280;51139;45.626;6.850;2023-02-01T05:30:10;82346.03;;;-4.03;51.85
64711;BME280;51139;45.626;6.850;2023-02-01T05:32:35;82347.19;;;-3.78;51.16
64711;BME280;51139;45.626;6.850;2023-02-01T05:35:01;82346.66;;;-3.88;51.17
64711;BME280;51139;45.626;6.850;2023-02-01T05:37:27;82348.72;;;-3.92;51.02
64711;BME280;51139;45.626;6.850;2023-02-01T05:39:52;82341.16;;;-4.28;52.27
64711;BME280;51139;45.626;6.850;2023-02-01T05:42:17;82348.84;;;-4.33;52.61
64711;BME280;51139;45.626;6.850;2023-02-01T05:44:43;82354.78;;;-4.27;51.48
64711;BME280;51139;45.626;6.850;2023-02-01T05:47:08;82356.75;;;-3.90;50.11
64711;BME280;51139;45.626;6.850;2023-02-01T05:49:34;82362.28;;;-3.71;49.08
64711;BME280;51139;45.626;6.850;2023-02-01T05:52:00;82349.66;;;-3.95;49.72
64711;BME280;51139;45.626;6.850;2023-02-01T05:54:26;82361.22;;;-4.17;50.96
64711;BME280;51139;45.626;6.850;2023-02-01T05:56:51;82351.28;;;-4.24;51.08
64711;BME280;51139;45.626;6.850;2023-02-01T05:59:17;82353.44;;;-3.90;49.42
64711;BME280;51139;45.626;6.850;2023-02-01T06:01:42;82353.59;;;-4.00;50.21
64711;BME280;51139;45.626;6.850;2023-02-01T06:04:07;82357.84;;;-3.64;49.97
64711;BME280;51139;45.626;6.850;2023-02-01T06:06:33;82352.25;;;-3.57;49.15
64711;BME280;51139;45.626;6.850;2023-02-01T06:08:59;82359.44;;;-3.73;49.71
64711;BME280;51139;45.626;6.850;2023-02-01T06:11:25;82355.59;;;-3.89;49.92
64711;BME280;51139;45.626;6.850;2023-02-01T06:13:51;82362.84;;;-3.93;50.15
64711;BME280;51139;45.626;6.850;2023-02-01T06:16:16;82352.75;;;-3.91;50.08
64711;BME280;51139;45.626;6.850;2023-02-01T06:18:42;82350.19;;;-4.17;51.04
64711;BME280;51139;45.626;6.850;2023-02-01T06:21:08;82360.22;;;-4.25;51.42
64711;BME280;51139;45.626;6.850;2023-02-01T06:23:34;82359.81;;;-4.18;51.54
64711;BME280;51139;45.626;6.850;2023-02-01T06:26:02;82350.28;;;-4.00;51.42
64711;BME280;51139;45.626;6.850;2023-02-01T06:28:29;82353.31;;;-4.07;51.19
64711;BME280;51139;45.626;6.850;2023-02-01T06:30:55;82352.88;;;-4.00;50.86
64711;BME280;51139;45.626;6.850;2023-02-01T06:33:20;82351.78;;;-4.20;51.61
64711;BME280;51139;45.626;6.850;2023-02-01T06:35:46;82356.31;;;-4.41;52.16
64711;BME280;51139;45.626;6.850;2023-02-01T06:38:12;82352.56;;;-4.40;52.86
64711;BME280;51139;45.626;6.850;2023-02-01T06:40:39;82349.06;;;-4.37;52.04
64711;BME280;51139;45.626;6.850;2023-02-01T06:43:04;82352.41;;;-4.31;52.24
64711;BME280;51139;45.626;6.850;2023-02-01T06:45:30;82357.09;;;-4.35;52.71
64711;BME280;51139;45.626;6.850;2023-02-01T06:47:55;82348.94;;;-4.48;52.87
64711;BME280;51139;45.626;6.850;2023-02-01T06:50:21;82356.63;;;-4.33;51.68
64711;BME280;51139;45.626;6.850;2023-02-01T06:52:46;82348.34;;;-4.37;51.71
64711;BME280;51139;45.626;6.850;2023-02-01T06:55:12;82367.25;;;-4.52;53.00
64711;BME280;51139;45.626;6.850;2023-02-01T06:57:38;82360.72;;;-4.47;52.53
64711;BME280;51139;45.626;6.850;2023-02-01T07:00:04;82366.31;;;-4.28;52.10
64711;BME280;51139;45.626;6.850;2023-02-01T07:02:29;82362.63;;;-4.42;52.60
64711;BME280;51139;45.626;6.850;2023-02-01T07:04:54;82367.22;;;-4.31;53.13
64711;BME280;51139;45.626;6.850;2023-02-01T07:07:20;82367.13;;;-4.43;53.48
64711;BME280;51139;45.626;6.850;2023-02-01T07:09:50;82361.38;;;-4.52;53.78
64711;BME280;51139;45.626;6.850;2023-02-01T07:12:16;82369.53;;;-4.33;53.62
64711;BME280;51139;45.626;6.850;2023-02-01T07:14:41;82373.19;;;-4.46;53.82
64711;BME280;51139;45.626;6.850;2023-02-01T07:17:06;82373.19;;;-4.46;53.75
64711;BME280;51139;45.626;6.850;2023-02-01T07:19:32;82369.81;;;-4.31;53.55
64711;BME280;51139;45.626;6.850;2023-02-01T07:21:57;82372.34;;;-4.37;53.66
64711;BME280;51139;45.626;6.850;2023-02-01T07:24:23;82368.34;;;-4.38;54.31
64711;BME280;51139;45.626;6.850;2023-02-01T07:26:48;82374.69;;;-4.39;54.27
64711;BME280;51139;45.626;6.850;2023-02-01T07:29:17;82366.44;;;-4.37;54.17
64711;BME280;51139;45.626;6.850;2023-02-01T07:31:42;82369.03;;;-4.11;53.27
64711;BME280;51139;45.626;6.850;2023-02-01T07:34:07;82356.34;;;-4.09;52.70
64711;BME280;51139;45.626;6.850;2023-02-01T07:36:33;82357.72;;;-4.14;53.22
64711;BME280;51139;45.626;6.850;2023-02-01T07:38:59;82362.94;;;-4.34;53.34
64711;BME280;51139;45.626;6.850;2023-02-01T07:41:25;82354.19;;;-4.43;53.74
64711;BME280;51139;45.626;6.850;2023-02-01T07:43:53;82369.25;;;-4.41;53.86
64711;BME280;51139;45.626;6.850;2023-02-01T07:46:18;82368.53;;;-3.89;53.31
64711;BME280;51139;45.626;6.850;2023-02-01T07:48:44;82368.13;;;-3.44;52.25
64711;BME280;51139;45.626;6.850;2023-02-01T07:51:11;82376.06;;;-3.15;51.63
64711;BME280;51139;45.626;6.850;2023-02-01T07:53:37;82379.75;;;-2.84;51.52
64711;BME280;51139;45.626;6.850;2023-02-01T07:56:04;82385.38;;;-2.37;50.16
64711;BME280;51139;45.626;6.850;2023-02-01T07:58:34;82386.66;;;-1.92;48.68
64711;BME280;51139;45.626;6.850;2023-02-01T08:00:59;82401.53;;;-1.98;47.96
64711;BME280;51139;45.626;6.850;2023-02-01T08:03:43;82410.97;;;-1.89;46.98
64711;BME280;51139;45.626;6.850;2023-02-01T08:06:09;82411.75;;;-1.38;46.38
64711;BME280;51139;45.626;6.850;2023-02-01T08:08:34;82418.13;;;-1.33;46.11
64711;BME280;51139;45.626;6.850;2023-02-01T08:11:01;82407.09;;;-0.29;45.20
64711;BME280;51139;45.626;6.850;2023-02-01T08:13:27;82400.56;;;0.60;40.64
64711;BME280;51139;45.626;6.850;2023-02-01T08:16:00;82398.84;;;1.29;40.20
64711;BME280;51139;45.626;6.850;2023-02-01T08:18:26;82396.69;;;1.33;39.17
64711;BME280;51139;45.626;6.850;2023-02-01T08:20:52;82408.13;;;0.99;40.68
64711;BME280;51139;45.626;6.850;2023-02-01T08:23:17;82406.78;;;2.17;37.67
64711;BME280;51139;45.626;6.850;2023-02-01T08:25:43;82405.09;;;2.19;39.81
64711;BME280;51139;45.626;6.850;2023-02-01T08:28:09;82395.84;;;3.74;36.25
64711;BME280;51139;45.626;6.850;2023-02-01T08:30:37;82395.72;;;3.93;35.00
64711;BME280;51139;45.626;6.850;2023-02-01T08:33:04;82396.25;;;4.32;33.48
64711;BME280;51139;45.626;6.850;2023-02-01T08:35:31;82396.44;;;3.67;36.60
64711;BME280;51139;45.626;6.850;2023-02-01T08:37:56;82392.00;;;3.29;36.82
64711;BME280;51139;45.626;6.850;2023-02-01T08:40:22;82392.09;;;2.33;35.62
64711;BME280;51139;45.626;6.850;2023-02-01T08:42:47;82397.50;;;3.44;34.57
64711;BME280;51139;45.626;6.850;2023-02-01T08:45:19;82394.81;;;4.58;32.62
64711;BME280;51139;45.626;6.850;2023-02-01T08:47:45;82397.88;;;4.96;32.77
64711;BME280;51139;45.626;6.850;2023-02-01T08:50:15;82399.41;;;3.11;34.63
64711;BME280;51139;45.626;6.850;2023-02-01T08:52:40;82412.47;;;3.90;34.33
64711;BME280;51139;45.626;6.850;2023-02-01T08:55:06;82415.88;;;3.71;35.36
64711;BME280;51139;45.626;6.850;2023-02-01T08:57:32;82410.78;;;4.19;35.74
64711;BME280;51139;45.626;6.850;2023-02-01T08:59:58;82413.34;;;5.21;33.53
64711;BME280;51139;45.626;6.850;2023-02-01T09:02:24;82420.03;;;4.34;35.79
64711;BME280;51139;45.626;6.850;2023-02-01T09:04:49;82413.50;;;4.14;34.34
64711;BME280;51139;45.626;6.850;2023-02-01T09:07:15;82418.75;;;4.14;35.97
64711;BME280;51139;45.626;6.850;2023-02-01T09:09:42;82422.56;;;3.99;36.71
64711;BME280;51139;45.626;6.850;2023-02-01T09:12:07;82429.81;;;4.60;34.27
64711;BME280;51139;45.626;6.850;2023-02-01T09:14:33;82423.66;;;5.19;31.75
64711;BME280;51139;45.626;6.850;2023-02-01T09:16:58;82423.22;;;4.94;35.67
64711;BME280;51139;45.626;6.850;2023-02-01T09:19:24;82430.84;;;4.57;36.12
64711;BME280;51139;45.626;6.850;2023-02-01T09:21:49;82425.16;;;3.86;35.61
64711;BME280;51139;45.626;6.850;2023-02-01T09:24:15;82424.81;;;4.22;37.86
64711;BME280;51139;45.626;6.850;2023-02-01T09:26:40;82418.03;;;4.67;36.64
64711;BME280;51139;45.626;6.850;2023-02-01T09:29:06;82432.03;;;4.70;37.33
64711;BME280;51139;45.626;6.850;2023-02-01T09:31:39;82433.38;;;6.60;34.52
64711;BME280;51139;45.626;6.850;2023-02-01T09:34:05;82434.66;;;6.66;32.81
64711;BME280;51139;45.626;6.850;2023-02-01T09:36:30;82435.06;;;5.22;36.41
64711;BME280;51139;45.626;6.850;2023-02-01T09:38:56;82439.66;;;5.08;36.89
64711;BME280;51139;45.626;6.850;2023-02-01T09:44:05;82431.59;;;8.50;30.35
64711;BME280;51139;45.626;6.850;2023-02-01T09:46:33;82435.03;;;7.07;32.11
64711;BME280;51139;45.626;6.850;2023-02-01T09:49:12;82432.34;;;5.91;35.95
64711;BME280;51139;45.626;6.850;2023-02-01T09:51:43;82438.03;;;6.75;34.80
64711;BME280;51139;45.626;6.850;2023-02-01T09:54:17;82444.84;;;5.98;37.36
64711;BME280;51139;45.626;6.850;2023-02-01T09:56:49;82434.16;;;6.47;36.42
64711;BME280;51139;45.626;6.850;2023-02-01T10:02:03;82447.19;;;6.23;34.88
64711;BME280;51139;45.626;6.850;2023-02-01T10:04:30;82451.38;;;6.77;34.73
64711;BME280;51139;45.626;6.850;2023-02-01T10:15:33;82471.81;;;6.92;33.19
64711;BME280;51139;45.626;6.850;2023-02-01T10:20:48;82473.56;;;5.54;35.05
64711;BME280;51139;45.626;6.850;2023-02-01T10:28:24;82494.00;;;4.59;37.18
64711;BME280;51139;45.626;6.850;2023-02-01T10:30:54;82503.28;;;4.74;38.36
64711;BME280;51139;45.626;6.850;2023-02-01T10:36:28;82495.09;;;4.91;37.33
64711;BME280;51139;45.626;6.850;2023-02-01T10:38:59;82497.03;;;4.50;40.90
64711;BME280;51139;45.626;6.850;2023-02-01T10:41:31;82494.88;;;4.08;40.76
64711;BME280;51139;45.626;6.850;2023-02-01T10:43:59;82494.59;;;4.25;40.50
64711;BME280;51139;45.626;6.850;2023-02-01T10:46:25;82492.63;;;3.99;43.98
64711;BME280;51139;45.626;6.850;2023-02-01T10:48:53;82493.59;;;3.49;43.03
64711;BME280;51139;45.626;6.850;2023-02-01T10:51:29;82503.47;;;4.35;39.23
64711;BME280;51139;45.626;6.850;2023-02-01T10:54:00;82504.59;;;4.94;38.92
64711;BME280;51139;45.626;6.850;2023-02-01T10:56:29;82493.59;;;4.42;40.20
64711;BME280;51139;45.626;6.850;2023-02-01T10:59:05;82496.03;;;4.66;38.88
64711;BME280;51139;45.626;6.850;2023-02-01T11:01:38;82501.56;;;3.90;40.59
64711;BME280;51139;45.626;6.850;2023-02-01T11:04:07;82493.59;;;4.15;39.76
64711;BME280;51139;45.626;6.850;2023-02-01T11:06:37;82499.84;;;4.25;42.33
64711;BME280;51139;45.626;6.850;2023-02-01T11:16:48;82487.94;;;4.24;41.35
64711;BME280;51139;45.626;6.850;2023-02-01T11:19:15;82490.84;;;4.07;41.58
64711;BME280;51139;45.626;6.850;2023-02-01T11:21:42;82492.16;;;3.68;43.06
64711;BME280;51139;45.626;6.850;2023-02-01T11:24:22;82489.09;;;3.96;44.02
64711;BME280;51139;45.626;6.850;2023-02-01T11:26:49;82482.63;;;3.51;44.23
64711;BME280;51139;45.626;6.850;2023-02-01T11:29:17;82490.09;;;3.28;43.44
64711;BME280;51139;45.626;6.850;2023-02-01T11:31:45;82486.19;;;3.67;42.53
64711;BME280;51139;45.626;6.850;2023-02-01T11:34:17;82474.00;;;4.02;40.93
64711;BME280;51139;45.626;6.850;2023-02-01T11:36:46;82475.41;;;4.03;42.13
64711;BME280;51139;45.626;6.850;2023-02-01T11:42:16;82471.31;;;3.10;43.57
64711;BME280;51139;45.626;6.850;2023-02-01T11:44:44;82468.69;;;3.10;40.62
64711;BME280;51139;45.626;6.850;2023-02-01T11:49:54;82460.50;;;3.33;42.34
64711;BME280;51139;45.626;6.850;2023-02-01T11:52:48;82466.03;;;3.29;46.98
64711;BME280;51139;45.626;6.850;2023-02-01T12:12:08;82451.50;;;1.88;44.07
64711;BME280;51139;45.626;6.850;2023-02-01T12:25:33;82429.91;;;1.33;44.98
64711;BME280;51139;45.626;6.850;2023-02-01T12:36:06;82426.47;;;3.65;41.69
64711;BME280;51139;45.626;6.850;2023-02-01T12:39:00;82421.97;;;3.47;39.59
64711;BME280;51139;45.626;6.850;2023-02-01T12:41:47;82424.13;;;3.29;42.56
64711;BME280;51139;45.626;6.850;2023-02-01T12:44:38;82413.09;;;2.85;42.40
64711;BME280;51139;45.626;6.850;2023-02-01T12:47:24;82408.00;;;0.80;46.06
64711;BME280;51139;45.626;6.850;2023-02-01T12:49:56;82406.50;;;2.21;43.69
64711;BME280;51139;45.626;6.850;2023-02-01T12:52:30;82411.66;;;3.03;40.26
64711;BME280;51139;45.626;6.850;2023-02-01T12:55:23;82413.72;;;2.91;39.82
64711;BME280;51139;45.626;6.850;2023-02-01T12:58:06;82413.72;;;3.10;38.46
64711;BME280;51139;45.626;6.850;2023-02-01T13:00:43;82415.84;;;3.25;39.78
64711;BME280;51139;45.626;6.850;2023-02-01T13:11:40;82408.72;;;2.55;42.55
64711;BME280;51139;45.626;6.850;2023-02-01T13:16:42;82411.47;;;2.24;44.80
64711;BME280;51139;45.626;6.850;2023-02-01T13:21:53;82403.22;;;2.77;38.79
64711;BME280;51139;45.626;6.850;2023-02-01T13:24:45;82395.94;;;2.70;37.88
64711;BME280;51139;45.626;6.850;2023-02-01T13:27:13;82392.88;;;2.85;41.95
64711;BME280;51139;45.626;6.850;2023-02-01T13:30:18;82387.69;;;2.99;41.67
64711;BME280;51139;45.626;6.850;2023-02-01T13:33:17;82390.22;;;3.04;38.34
64711;BME280;51139;45.626;6.850;2023-02-01T13:42:04;82389.66;;;2.92;40.40
64711;BME280;51139;45.626;6.850;2023-02-01T13:44:36;82385.44;;;2.89;40.26
64711;BME280;51139;45.626;6.850;2023-02-01T13:47:32;82384.75;;;2.51;36.38
64711;BME280;51139;45.626;6.850;2023-02-01T13:49:59;82400.13;;;1.47;38.89
64711;BME280;51139;45.626;6.850;2023-02-01T13:52:38;82397.34;;;2.33;38.43
64711;BME280;51139;45.626;6.850;2023-02-01T13:57:41;82398.19;;;2.60;37.73
64711;BME280;51139;45.626;6.850;2023-02-01T14:00:37;82394.50;;;2.50;36.43
64711;BME280;51139;45.626;6.850;2023-02-01T14:10:53;82404.41;;;2.57;35.94
64711;BME280;51139;45.626;6.850;2023-02-01T14:26:44;82403.34;;;2.47;39.85
64711;BME280;51139;45.626;6.850;2023-02-01T14:34:48;82408.72;;;2.36;39.25
64711;BME280;51139;45.626;6.850;2023-02-01T14:37:12;82416.84;;;2.51;39.05
64711;BME280;51139;45.626;6.850;2023-02-01T14:40:00;82407.72;;;2.39;40.81
64711;BME280;51139;45.626;6.850;2023-02-01T14:50:33;82413.72;;;2.91;42.28
64711;BME280;51139;45.626;6.850;2023-02-01T15:01:03;82422.25;;;2.15;40.72
64711;BME280;51139;45.626;6.850;2023-02-01T15:12:09;82413.81;;;2.47;40.30
64711;BME280;51139;45.626;6.850;2023-02-01T15:14:44;82414.28;;;2.45;38.47
64711;BME280;51139;45.626;6.850;2023-02-01T15:19:58;82424.94;;;1.84;39.42
64711;BME280;51139;45.626;6.850;2023-02-01T15:22:25;82416.47;;;1.78;41.25
64711;BME280;51139;45.626;6.850;2023-02-01T15:24:53;82421.00;;;1.16;39.86
64711;BME280;51139;45.626;6.850;2023-02-01T15:27:19;82420.38;;;1.91;41.28
64711;BME280;51139;45.626;6.850;2023-02-01T15:29:44;82415.09;;;1.71;41.38
64711;BME280;51139;45.626;6.850;2023-02-01T15:32:31;82411.56;;;2.13;38.17
64711;BME280;51139;45.626;6.850;2023-02-01T15:34:57;82406.09;;;1.11;38.95
64711;BME280;51139;45.626;6.850;2023-02-01T15:37:23;82405.13;;;1.95;38.45
64711;BME280;51139;45.626;6.850;2023-02-01T15:42:56;82410.63;;;2.54;42.03
64711;BME280;51139;45.626;6.850;2023-02-01T15:45:27;82404.13;;;2.61;39.79
64711;BME280;51139;45.626;6.850;2023-02-01T15:47:55;82399.31;;;2.46;39.58
64711;BME280;51139;45.626;6.850;2023-02-01T15:50:21;82406.44;;;2.45;41.53
64711;BME280;51139;45.626;6.850;2023-02-01T15:52:49;82402.84;;;2.48;42.03
64711;BME280;51139;45.626;6.850;2023-02-01T15:55:20;82408.59;;;2.03;41.10
64711;BME280;51139;45.626;6.850;2023-02-01T15:57:48;82396.00;;;2.45;42.61
64711;BME280;51139;45.626;6.850;2023-02-01T16:05:39;82414.59;;;2.42;42.76
64711;BME280;51139;45.626;6.850;2023-02-01T16:08:15;82407.09;;;1.88;43.08
64711;BME280;51139;45.626;6.850;2023-02-01T16:10:46;82399.84;;;1.75;43.24
64711;BME280;51139;45.626;6.850;2023-02-01T16:13:12;82406.91;;;1.31;45.04
64711;BME280;51139;45.626;6.850;2023-02-01T16:15:38;82412.78;;;0.70;44.02